createdAt,value
2022-09-16T00:00:56.224Z,10.10
2022-09-16T00:03:42.124Z,10.10
2022-09-16T00:06:30.714Z,10.10
2022-09-16T00:09:16.127Z,10.10
2022-09-16T00:12:01.187Z,10.10
2022-09-16T00:14:46.394Z,10.10
2022-09-16T00:17:31.644Z,10.00
2022-09-16T00:20:16.930Z,10.00
2022-09-16T00:23:02.189Z,10.00
2022-09-16T00:25:51.546Z,10.00
2022-09-16T00:28:36.812Z,10.00
2022-09-16T00:31:22.019Z,10.00
2022-09-16T00:34:07.520Z,10.00
2022-09-16T00:36:52.511Z,10.00
2022-09-16T00:39:37.732Z,10.00
2022-09-16T00:42:22.939Z,10.00
2022-09-16T00:45:16.473Z,10.00
2022-09-16T00:48:03.695Z,10.00
2022-09-16T00:50:51.365Z,10.00
2022-09-16T00:53:43.321Z,10.00
2022-09-16T00:56:29.371Z,10.00
2022-09-16T00:59:17.784Z,10.10
2022-09-16T01:02:08.331Z,10.10
2022-09-16T01:04:53.552Z,10.10
2022-09-16T01:07:46.505Z,10.10
2022-09-16T01:10:31.763Z,10.20
2022-09-16T01:13:17.371Z,10.10
2022-09-16T01:16:14.954Z,10.10
2022-09-16T01:19:09.690Z,10.20
2022-09-16T01:22:13.737Z,10.20
2022-09-16T01:24:59.238Z,10.10
2022-09-16T01:27:50.924Z,10.10
2022-09-16T01:30:45.460Z,10.10
2022-09-16T01:33:42.805Z,10.00
2022-09-16T01:36:47.166Z,10.00
2022-09-16T01:40:01.949Z,10.00
2022-09-16T01:43:06.232Z,10.00
2022-09-16T01:45:55.929Z,10.00
2022-09-16T01:49:01.971Z,10.00
2022-09-16T01:51:49.810Z,10.00
2022-09-16T01:54:40.056Z,10.00
2022-09-16T01:57:25.012Z,10.00
2022-09-16T02:00:11.541Z,10.00
2022-09-16T02:02:56.905Z,9.90
2022-09-16T02:05:49.503Z,9.90
2022-09-16T02:08:39.623Z,9.90
2022-09-16T02:11:25.335Z,9.90
2022-09-16T02:14:13.354Z,9.90
2022-09-16T02:17:01.428Z,9.90
2022-09-16T02:19:49.004Z,9.90
2022-09-16T02:22:43.309Z,9.90
2022-09-16T02:25:31.129Z,9.90
2022-09-16T02:28:20.043Z,9.90
2022-09-16T02:31:09.552Z,9.90
2022-09-16T02:34:00.265Z,9.90
2022-09-16T02:36:47.573Z,9.80
2022-09-16T02:39:37.539Z,9.90
2022-09-16T02:42:23.055Z,9.80
2022-09-16T02:45:08.459Z,9.80
2022-09-16T02:47:59.971Z,9.80
2022-09-16T02:50:52.103Z,9.80
2022-09-16T02:53:45.197Z,9.80
2022-09-16T02:56:32.445Z,9.80
2022-09-16T02:59:17.962Z,9.80
2022-09-16T03:02:03.217Z,9.80
2022-09-16T03:04:48.870Z,9.80
2022-09-16T03:07:33.940Z,9.80
2022-09-16T03:10:18.966Z,9.70
2022-09-16T03:13:20.932Z,9.70
2022-09-16T03:16:12.492Z,9.70
2022-09-16T03:19:07.314Z,9.70
2022-09-16T03:21:55.580Z,9.70
2022-09-16T03:24:50.091Z,9.60
2022-09-16T03:27:45.414Z,9.60
2022-09-16T03:30:33.295Z,9.60
2022-09-16T03:33:27.107Z,9.60
2022-09-16T03:36:14.288Z,9.60
2022-09-16T03:39:00.512Z,9.50
2022-09-16T03:41:45.938Z,9.50
2022-09-16T03:44:34.560Z,9.50
2022-09-16T03:47:19.701Z,9.50
2022-09-16T03:50:05.203Z,9.50
2022-09-16T03:52:50.610Z,9.50
2022-09-16T03:55:35.651Z,9.60
2022-09-16T03:58:20.637Z,9.50
2022-09-16T04:01:05.685Z,9.50
2022-09-16T04:03:52.404Z,9.50
2022-09-16T04:06:38.005Z,9.50
2022-09-16T04:09:26.911Z,9.50
2022-09-16T04:12:13.717Z,9.50
2022-09-16T04:15:00.753Z,9.60
2022-09-16T04:17:46.497Z,9.60
2022-09-16T04:20:33.240Z,9.60
2022-09-16T04:23:18.572Z,9.60
2022-09-16T04:26:03.626Z,9.70
2022-09-16T04:28:48.717Z,9.80
2022-09-16T04:31:34.061Z,9.80
2022-09-16T04:34:19.570Z,9.90
2022-09-16T04:37:04.702Z,9.90
2022-09-16T04:39:49.885Z,10.00
2022-09-16T04:42:35.353Z,10.10
2022-09-16T04:45:20.597Z,10.00
2022-09-16T04:48:05.726Z,10.10
2022-09-16T04:50:51.181Z,10.00
2022-09-16T04:53:37.119Z,10.00
2022-09-16T04:56:25.773Z,10.00
2022-09-16T04:59:11.215Z,9.90
2022-09-16T05:01:57.202Z,10.00
2022-09-16T05:04:42.438Z,9.90
2022-09-16T05:07:28.275Z,9.90
2022-09-16T05:10:13.534Z,9.80
2022-09-16T05:12:58.549Z,9.80
2022-09-16T05:15:47.555Z,9.70
2022-09-16T05:18:37.170Z,9.70
2022-09-16T05:21:23.495Z,9.70
2022-09-16T05:24:09.622Z,9.60
2022-09-16T05:26:54.840Z,9.60
2022-09-16T05:29:40.394Z,9.60
2022-09-16T05:32:25.574Z,9.60
2022-09-16T05:35:10.643Z,9.50
2022-09-16T05:37:55.883Z,9.60
2022-09-16T05:40:41.110Z,9.60
2022-09-16T05:43:26.358Z,9.60
2022-09-16T05:46:16.801Z,9.70
2022-09-16T05:49:02.769Z,9.80
2022-09-16T05:51:48.523Z,9.80
2022-09-16T05:54:34.109Z,9.80
2022-09-16T05:57:19.212Z,9.90
2022-09-16T06:00:06.142Z,10.00
2022-09-16T06:02:51.312Z,10.00
2022-09-16T06:05:36.889Z,10.10
2022-09-16T06:08:22.043Z,10.20
2022-09-16T06:11:08.552Z,10.30
2022-09-16T06:13:55.693Z,10.40
2022-09-16T06:16:41.149Z,10.60
2022-09-16T06:19:26.520Z,10.70
2022-09-16T06:22:11.640Z,10.70
2022-09-16T06:24:56.696Z,12.10
2022-09-16T06:27:41.697Z,10.80
2022-09-16T06:30:30.517Z,10.90
2022-09-16T06:33:16.981Z,11.00
2022-09-16T06:36:03.175Z,11.20
2022-09-16T06:38:48.952Z,11.20
2022-09-16T06:41:34.556Z,11.20
2022-09-16T06:44:19.980Z,11.00
2022-09-16T06:47:05.105Z,11.00
2022-09-16T06:49:50.026Z,10.90
2022-09-16T06:52:35.263Z,10.90
2022-09-16T06:55:20.340Z,10.90
2022-09-16T06:58:05.590Z,10.90
2022-09-16T07:00:51.127Z,10.90
2022-09-16T07:03:41.063Z,10.90
2022-09-16T07:06:45.273Z,10.90
2022-09-16T07:09:33.157Z,10.90
2022-09-16T07:12:19.724Z,11.00
2022-09-16T07:15:05.412Z,11.00
2022-09-16T07:17:55.175Z,11.10
2022-09-16T07:20:40.231Z,11.20
2022-09-16T07:23:25.404Z,11.40
2022-09-16T07:26:18.034Z,11.50
2022-09-16T07:29:04.667Z,11.70
2022-09-16T07:31:49.679Z,11.90
2022-09-16T07:34:34.712Z,12.10
2022-09-16T07:37:20.018Z,12.20
2022-09-16T07:40:05.758Z,12.30
2022-09-16T07:42:51.244Z,12.30
2022-09-16T07:45:36.286Z,12.20
2022-09-16T07:48:21.988Z,12.10
2022-09-16T07:51:08.338Z,12.00
2022-09-16T07:54:00.943Z,12.00
2022-09-16T07:56:46.303Z,12.00
2022-09-16T07:59:31.511Z,12.00
2022-09-16T08:02:17.023Z,12.20
2022-09-16T08:05:02.407Z,12.30
2022-09-16T08:07:47.264Z,12.30
2022-09-16T08:10:32.982Z,12.30
2022-09-16T08:13:18.247Z,12.40
2022-09-16T08:16:05.250Z,12.30
2022-09-16T08:18:51.629Z,12.10
2022-09-16T08:21:36.968Z,12.00
2022-09-16T08:24:22.173Z,11.90
2022-09-16T08:27:08.043Z,11.90
2022-09-16T08:29:53.378Z,12.00
2022-09-16T08:32:38.471Z,12.30
2022-09-16T08:35:23.818Z,12.50
2022-09-16T08:38:09.176Z,12.70
2022-09-16T08:41:03.476Z,12.80
2022-09-16T08:43:58.039Z,12.70
2022-09-16T08:46:53.812Z,12.80
2022-09-16T08:49:43.968Z,12.80
2022-09-16T08:52:36.694Z,12.80
2022-09-16T08:55:25.251Z,12.80
2022-09-16T08:58:16.068Z,13.00
2022-09-16T09:01:04.524Z,13.20
2022-09-16T09:03:50.126Z,13.40
2022-09-16T09:06:41.477Z,13.40
2022-09-16T09:09:45.504Z,13.40
2022-09-16T09:12:47.133Z,13.30
2022-09-16T09:15:50.497Z,13.30
2022-09-16T09:18:56.005Z,13.40
2022-09-16T09:22:02.696Z,13.40
2022-09-16T09:24:58.725Z,13.40
2022-09-16T09:27:50.163Z,13.40
2022-09-16T09:30:36.619Z,13.50
2022-09-16T09:33:46.874Z,13.60
2022-09-16T09:36:35.559Z,13.60
2022-09-16T09:39:21.129Z,13.70
2022-09-16T09:42:25.916Z,15.10
2022-09-16T09:45:27.534Z,13.80
2022-09-16T09:48:13.181Z,14.20
2022-09-16T09:51:02.769Z,14.60
2022-09-16T09:53:53.332Z,14.60
2022-09-16T09:56:41.796Z,14.40
2022-09-16T09:59:33.165Z,14.20
2022-09-16T10:02:19.953Z,14.10
2022-09-16T10:05:07.598Z,14.20
2022-09-16T10:07:55.139Z,14.20
2022-09-16T10:10:45.879Z,14.00
2022-09-16T10:13:31.111Z,14.00
2022-09-16T10:16:18.608Z,14.10
2022-09-16T10:19:09.213Z,14.20
2022-09-16T10:22:11.379Z,14.40
2022-09-16T10:24:57.858Z,14.60
2022-09-16T10:27:43.221Z,14.60
2022-09-16T10:30:29.315Z,14.70
2022-09-16T10:33:18.608Z,14.90
2022-09-16T10:36:06.597Z,14.80
2022-09-16T10:39:00.952Z,14.80
2022-09-16T10:41:50.400Z,14.70
2022-09-16T10:44:37.012Z,14.80
2022-09-16T10:47:24.655Z,14.90
2022-09-16T10:50:17.372Z,15.00
2022-09-16T10:53:02.736Z,15.20
2022-09-16T10:55:57.215Z,15.30
2022-09-16T10:58:42.626Z,15.20
2022-09-16T11:01:28.889Z,14.90
2022-09-16T11:04:33.158Z,14.80
2022-09-16T11:07:28.413Z,14.90
2022-09-16T11:10:30.302Z,14.90
2022-09-16T11:13:22.869Z,14.90
2022-09-16T11:16:26.707Z,14.70
2022-09-16T11:19:38.672Z,14.60
2022-09-16T11:22:46.676Z,14.70
2022-09-16T11:25:51.055Z,14.60
2022-09-16T11:28:45.398Z,14.60
2022-09-16T11:31:36.118Z,14.60
2022-09-16T11:34:31.304Z,14.40
2022-09-16T11:37:35.357Z,14.20
2022-09-16T11:40:26.810Z,13.80
2022-09-16T11:43:11.909Z,13.70
2022-09-16T11:46:01.120Z,13.60
2022-09-16T11:49:16.071Z,13.60
2022-09-16T11:52:20.179Z,13.70
2022-09-16T11:55:27.172Z,13.90
2022-09-16T11:58:27.680Z,14.30
2022-09-16T12:01:16.116Z,14.60
2022-09-16T12:04:20.242Z,14.90
2022-09-16T12:07:17.788Z,15.00
2022-09-16T12:10:03.178Z,14.70
2022-09-16T12:12:52.470Z,14.70
2022-09-16T12:15:41.197Z,14.70
2022-09-16T12:18:30.356Z,14.60
2022-09-16T12:21:22.377Z,14.50
2022-09-16T12:24:10.587Z,14.40
2022-09-16T12:27:07.757Z,14.50
2022-09-16T12:29:56.600Z,14.50
2022-09-16T12:32:52.167Z,14.50
2022-09-16T12:35:39.540Z,14.60
2022-09-16T12:38:25.279Z,14.70
2022-09-16T12:41:22.381Z,14.80
2022-09-16T12:44:30.499Z,14.90
